sensor_id;sensor_type;location;lat;lon;timestamp;pressure;altitude;pressure_sealevel;temperature;humidity
36092;BME280;22147;52.388;13.390;2022-11-02T00:01:28;101314.06;;;6.22;100.00
36092;BME280;22147;52.388;13.390;2022-11-02T00:04:05;101301.97;;;6.18;100.00
36092;BME280;22147;52.388;13.390;2022-11-02T00:06:35;101304.13;;;6.21;100.00
36092;BME280;22147;52.388;13.390;2022-11-02T00:09:05;101305.81;;;6.17;100.00
36092;BME280;22147;52.388;13.390;2022-11-02T00:11:37;101313.22;;;6.22;100.00
36092;BME280;22147;52.388;13.390;2022-11-02T00:14:07;101315.75;;;6.18;100.00
36092;BME280;22147;52.388;13.390;2022-11-02T00:16:39;101312.72;;;6.15;100.00
36092;BME280;22147;52.388;13.390;2022-11-02T00:19:09;101308.59;;;6.12;100.00
36092;BME280;22147;52.388;13.390;2022-11-02T00:21:40;101321.56;;;6.11;100.00
36092;BME280;22147;52.388;13.390;2022-11-02T00:24:11;101316.34;;;6.10;100.00
36092;BME280;22147;52.388;13.390;2022-11-02T00:26:41;101313.00;;;6.13;100.00
36092;BME280;22147;52.388;13.390;2022-11-02T00:29:11;101307.75;;;6.17;100.00
36092;BME280;22147;52.388;13.390;2022-11-02T00:31:40;101308.03;;;6.20;100.00
36092;BME280;22147;52.388;13.390;2022-11-02T00:34:09;101310.78;;;6.20;100.00
36092;BME280;22147;52.388;13.390;2022-11-02T00:36:39;101315.97;;;6.22;100.00
36092;BME280;22147;52.388;13.390;2022-11-02T00:39:08;101316.56;;;6.19;100.00
36092;BME280;22147;52.388;13.390;2022-11-02T00:41:38;101313.81;;;6.19;100.00
36092;BME280;22147;52.388;13.390;2022-11-02T00:44:08;101307.47;;;6.18;100.00
36092;BME280;22147;52.388;13.390;2022-11-02T00:46:37;101310.53;;;6.11;100.00
36092;BME280;22147;52.388;13.390;2022-11-02T00:49:07;101308.06;;;6.10;100.00
36092;BME280;22147;52.388;13.390;2022-11-02T00:51:37;101316.63;;;6.08;100.00
36092;BME280;22147;52.388;13.390;2022-11-02T00:54:07;101314.13;;;6.07;100.00
36092;BME280;22147;52.388;13.390;2022-11-02T00:56:36;101318.28;;;6.04;100.00
36092;BME280;22147;52.388;13.390;2022-11-02T00:59:07;101317.22;;;6.00;100.00
36092;BME280;22147;52.388;13.390;2022-11-02T01:01:37;101316.94;;;5.97;100.00
36092;BME280;22147;52.388;13.390;2022-11-02T01:04:07;101317.75;;;5.92;100.00
36092;BME280;22147;52.388;13.390;2022-11-02T01:06:37;101316.13;;;5.91;100.00
36092;BME280;22147;52.388;13.390;2022-11-02T01:09:07;101298.75;;;5.90;100.00
36092;BME280;22147;52.388;13.390;2022-11-02T01:11:40;101308.13;;;5.89;100.00
36092;BME280;22147;52.388;13.390;2022-11-02T01:14:10;101315.56;;;5.89;100.00
36092;BME280;22147;52.388;13.390;2022-11-02T01:16:40;101313.09;;;5.87;100.00
36092;BME280;22147;52.388;13.390;2022-11-02T01:19:10;101313.38;;;5.86;100.00
36092;BME280;22147;52.388;13.390;2022-11-02T01:21:43;101318.34;;;5.84;100.00
36092;BME280;22147;52.388;13.390;2022-11-02T01:24:13;101317.53;;;5.83;100.00
36092;BME280;22147;52.388;13.390;2022-11-02T01:26:43;101312.00;;;5.83;100.00
36092;BME280;22147;52.388;13.390;2022-11-02T01:29:13;101318.38;;;5.79;100.00
36092;BME280;22147;52.388;13.390;2022-11-02T01:31:42;101311.50;;;5.76;100.00
36092;BME280;22147;52.388;13.390;2022-11-02T01:34:12;101313.41;;;5.76;100.00
36092;BME280;22147;52.388;13.390;2022-11-02T01:36:43;101316.19;;;5.70;100.00
36092;BME280;22147;52.388;13.390;2022-11-02T01:39:14;101322.56;;;5.66;100.00
36092;BME280;22147;52.388;13.390;2022-11-02T01:41:44;101313.75;;;5.64;100.00
36092;BME280;22147;52.388;13.390;2022-11-02T01:44:40;101303.00;;;5.62;100.00
36092;BME280;22147;52.388;13.390;2022-11-02T01:47:27;101302.72;;;5.64;100.00
36092;BME280;22147;52.388;13.390;2022-11-02T01:50:11;101305.72;;;5.72;100.00
36092;BME280;22147;52.388;13.390;2022-11-02T01:52:44;101296.34;;;5.74;100.00
36092;BME280;22147;52.388;13.390;2022-11-02T01:55:23;101294.69;;;5.72;100.00
36092;BME280;22147;52.388;13.390;2022-11-02T01:58:05;101290.31;;;5.71;100.00
36092;BME280;22147;52.388;13.390;2022-11-02T02:00:39;101293.28;;;5.75;100.00
36092;BME280;22147;52.388;13.390;2022-11-02T02:03:14;101287.22;;;5.73;100.00
36092;BME280;22147;52.388;13.390;2022-11-02T02:06:07;101290.84;;;5.68;100.00
36092;BME280;22147;52.388;13.390;2022-11-02T02:08:45;101292.25;;;5.61;100.00
36092;BME280;22147;52.388;13.390;2022-11-02T02:11:34;101291.72;;;5.54;100.00
36092;BME280;22147;52.388;13.390;2022-11-02T02:20:09;101290.91;;;5.53;100.00
36092;BME280;22147;52.388;13.390;2022-11-02T02:26:58;101284.31;;;5.44;100.00
36092;BME280;22147;52.388;13.390;2022-11-02T02:29:50;101276.06;;;5.39;100.00
36092;BME280;22147;52.388;13.390;2022-11-02T02:35:47;101274.16;;;5.34;100.00
36092;BME280;22147;52.388;13.390;2022-11-02T02:41:59;101275.53;;;5.32;100.00
36092;BME280;22147;52.388;13.390;2022-11-02T02:44:42;101263.44;;;5.22;100.00
36092;BME280;22147;52.388;13.390;2022-11-02T02:47:24;101265.38;;;5.17;100.00
36092;BME280;22147;52.388;13.390;2022-11-02T02:50:13;101273.34;;;5.18;100.00
36092;BME280;22147;52.388;13.390;2022-11-02T02:52:52;101272.00;;;5.21;100.00
36092;BME280;22147;52.388;13.390;2022-11-02T02:55:34;101273.63;;;5.22;100.00
36092;BME280;22147;52.388;13.390;2022-11-02T02:58:19;101272.25;;;5.19;100.00
36092;BME280;22147;52.388;13.390;2022-11-02T03:00:56;101267.00;;;5.28;100.00
36092;BME280;22147;52.388;13.390;2022-11-02T03:03:33;101273.34;;;5.34;100.00
36092;BME280;22147;52.388;13.390;2022-11-02T03:06:17;101271.69;;;5.38;100.00
36092;BME280;22147;52.388;13.390;2022-11-02T03:09:01;101276.56;;;5.56;100.00
36092;BME280;22147;52.388;13.390;2022-11-02T03:18:00;101267.75;;;5.54;100.00
36092;BME280;22147;52.388;13.390;2022-11-02T03:24:02;101269.72;;;5.48;100.00
36092;BME280;22147;52.388;13.390;2022-11-02T03:30:27;101274.91;;;5.55;100.00
36092;BME280;22147;52.388;13.390;2022-11-02T03:33:36;101270.75;;;5.63;100.00
36092;BME280;22147;52.388;13.390;2022-11-02T03:36:21;101268.78;;;5.74;100.00
36092;BME280;22147;52.388;13.390;2022-11-02T03:39:24;101272.66;;;5.67;100.00
36092;BME280;22147;52.388;13.390;2022-11-02T03:42:26;101270.75;;;5.63;100.00
36092;BME280;22147;52.388;13.390;2022-11-02T03:45:10;101275.69;;;5.66;100.00
36092;BME280;22147;52.388;13.390;2022-11-02T03:47:54;101277.09;;;5.63;100.00
36092;BME280;22147;52.388;13.390;2022-11-02T03:50:31;101272.94;;;5.61;100.00
36092;BME280;22147;52.388;13.390;2022-11-02T03:53:14;101267.75;;;5.59;100.00
36092;BME280;22147;52.388;13.390;2022-11-02T03:56:05;101272.94;;;5.61;100.00
36092;BME280;22147;52.388;13.390;2022-11-02T03:58:40;101272.41;;;5.59;100.00
36092;BME280;22147;52.388;13.390;2022-11-02T04:01:11;101267.47;;;5.56;100.00
36092;BME280;22147;52.388;13.390;2022-11-02T04:03:47;101264.44;;;5.52;100.00
36092;BME280;22147;52.388;13.390;2022-11-02T04:06:17;101263.06;;;5.55;100.00
36092;BME280;22147;52.388;13.390;2022-11-02T04:08:48;101269.41;;;5.55;100.00
36092;BME280;22147;52.388;13.390;2022-11-02T04:11:16;101268.03;;;5.47;100.00
36092;BME280;22147;52.388;13.390;2022-11-02T04:14:06;101255.94;;;5.48;100.00
36092;BME280;22147;52.388;13.390;2022-11-02T04:16:53;101267.47;;;5.56;100.00
36092;BME280;22147;52.388;13.390;2022-11-02T04:19:43;101273.56;;;5.53;100.00
36092;BME280;22147;52.388;13.390;2022-11-02T04:22:21;101264.97;;;5.54;100.00
36092;BME280;22147;52.388;13.390;2022-11-02T04:25:17;101265.25;;;5.58;100.00
36092;BME280;22147;52.388;13.390;2022-11-02T04:27:50;101260.03;;;5.56;100.00
36092;BME280;22147;52.388;13.390;2022-11-02T04:30:21;101269.94;;;5.57;100.00
36092;BME280;22147;52.388;13.390;2022-11-02T04:32:50;101265.28;;;5.53;100.00
36092;BME280;22147;52.388;13.390;2022-11-02T04:35:39;101266.41;;;5.46;100.00
36092;BME280;22147;52.388;13.390;2022-11-02T04:38:08;101266.72;;;5.40;100.00
36092;BME280;22147;52.388;13.390;2022-11-02T04:40:59;101268.06;;;5.37;100.00
36092;BME280;22147;52.388;13.390;2022-11-02T04:43:47;101272.50;;;5.33;100.00
36092;BME280;22147;52.388;13.390;2022-11-02T04:46:17;101272.75;;;5.37;100.00
36092;BME280;22147;52.388;13.390;2022-11-02T04:48:48;101272.50;;;5.33;100.00
36092;BME280;22147;52.388;13.390;2022-11-02T04:51:19;101274.69;;;5.31;100.00
36092;BME280;22147;52.388;13.390;2022-11-02T04:53:49;101273.34;;;5.28;100.00
36092;BME280;22147;52.388;13.390;2022-11-02T04:56:20;101265.34;;;5.27;100.00
36092;BME280;22147;52.388;13.390;2022-11-02T04:58:56;101266.47;;;5.26;100.00
36092;BME280;22147;52.388;13.390;2022-11-02T05:01:28;101272.25;;;5.19;100.00
36092;BME280;22147;52.388;13.390;2022-11-02T05:03:56;101277.50;;;5.16;100.00
36092;BME280;22147;52.388;13.390;2022-11-02T05:06:24;101270.63;;;5.13;100.00
36092;BME280;22147;52.388;13.390;2022-11-02T05:08:55;101274.75;;;5.16;100.00
36092;BME280;22147;52.388;13.390;2022-11-02T05:11:27;101276.41;;;5.17;100.00
36092;BME280;22147;52.388;13.390;2022-11-02T05:13:57;101267.81;;;5.28;100.00
36092;BME280;22147;52.388;13.390;2022-11-02T05:16:27;101270.03;;;5.26;100.00
36092;BME280;22147;52.388;13.390;2022-11-02T05:18:56;101270.56;;;5.28;100.00
36092;BME280;22147;52.388;13.390;2022-11-02T05:21:26;101260.66;;;5.33;100.00
36092;BME280;22147;52.388;13.390;2022-11-02T05:23:56;101275.78;;;5.40;100.00
36092;BME280;22147;52.388;13.390;2022-11-02T05:26:26;101282.66;;;5.43;100.00
36092;BME280;22147;52.388;13.390;2022-11-02T05:28:55;101271.66;;;5.43;100.00
36092;BME280;22147;52.388;13.390;2022-11-02T05:31:25;101274.66;;;5.51;100.00
36092;BME280;22147;52.388;13.390;2022-11-02T05:33:55;101271.59;;;5.58;100.00
36092;BME280;22147;52.388;13.390;2022-11-02T05:36:24;101268.00;;;5.58;100.00
36092;BME280;22147;52.388;13.390;2022-11-02T05:38:55;101274.91;;;5.55;100.00
36092;BME280;22147;52.388;13.390;2022-11-02T05:41:22;101271.59;;;5.58;100.00
36092;BME280;22147;52.388;13.390;2022-11-02T05:43:52;101266.88;;;5.59;100.00
36092;BME280;22147;52.388;13.390;2022-11-02T05:46:22;101273.78;;;5.56;100.00
36092;BME280;22147;52.388;13.390;2022-11-02T05:48:51;101273.00;;;5.50;100.00
36092;BME280;22147;52.388;13.390;2022-11-02T05:51:21;101274.94;;;5.45;100.00
36092;BME280;22147;52.388;13.390;2022-11-02T05:53:51;101269.75;;;5.38;100.00
36092;BME280;22147;52.388;13.390;2022-11-02T05:56:20;101282.13;;;5.41;100.00
36092;BME280;22147;52.388;13.390;2022-11-02T05:58:53;101268.06;;;5.37;100.00
36092;BME280;22147;52.388;13.390;2022-11-02T06:01:22;101269.47;;;5.35;100.00
36092;BME280;22147;52.388;13.390;2022-11-02T06:03:52;101275.25;;;5.33;100.00
36092;BME280;22147;52.388;13.390;2022-11-02T06:06:22;101284.06;;;5.30;100.00
36092;BME280;22147;52.388;13.390;2022-11-02T06:08:52;101279.66;;;5.29;100.00
36092;BME280;22147;52.388;13.390;2022-11-02T06:11:22;101269.75;;;5.28;100.00
36092;BME280;22147;52.388;13.390;2022-11-02T06:13:51;101267.81;;;5.28;100.00
36092;BME280;22147;52.388;13.390;2022-11-02T06:16:21;101265.88;;;5.39;100.00
36092;BME280;22147;52.388;13.390;2022-11-02T06:18:51;101269.94;;;5.52;100.00
36092;BME280;22147;52.388;13.390;2022-11-02T06:21:21;101271.88;;;5.57;100.00
36092;BME280;22147;52.388;13.390;2022-11-02T06:23:51;101267.16;;;5.62;100.00
36092;BME280;22147;52.388;13.390;2022-11-02T06:26:21;101262.72;;;5.71;100.00
36092;BME280;22147;52.388;13.390;2022-11-02T06:28:50;101274.81;;;5.81;100.00
36092;BME280;22147;52.388;13.390;2022-11-02T06:31:20;101267.94;;;5.78;100.00
36092;BME280;22147;52.388;13.390;2022-11-02T06:33:50;101274.00;;;5.80;100.00
36092;BME280;22147;52.388;13.390;2022-11-02T06:36:20;101274.22;;;5.99;100.00
36092;BME280;22147;52.388;13.390;2022-11-02T06:38:50;101279.69;;;6.04;100.00
36092;BME280;22147;52.388;13.390;2022-11-02T06:41:20;101270.81;;;6.07;100.00
36092;BME280;22147;52.388;13.390;2022-11-02T06:43:49;101271.63;;;6.13;100.00
36092;BME280;22147;52.388;13.390;2022-11-02T06:46:19;101283.22;;;6.15;100.00
36092;BME280;22147;52.388;13.390;2022-11-02T06:48:49;101281.31;;;6.10;100.00
36092;BME280;22147;52.388;13.390;2022-11-02T06:51:19;101287.91;;;6.09;100.00
36092;BME280;22147;52.388;13.390;2022-11-02T06:53:48;101278.50;;;6.21;100.00
36092;BME280;22147;52.388;13.390;2022-11-02T06:56:18;101291.44;;;6.25;100.00
36092;BME280;22147;52.388;13.390;2022-11-02T06:58:48;101285.84;;;6.30;100.00
36092;BME280;22147;52.388;13.390;2022-11-02T07:01:21;101292.47;;;6.35;100.00
36092;BME280;22147;52.388;13.390;2022-11-02T07:03:48;101295.25;;;6.29;100.00
36092;BME280;22147;52.388;13.390;2022-11-02T07:06:18;101302.88;;;6.48;100.00
36092;BME280;22147;52.388;13.390;2022-11-02T07:08:48;101300.06;;;6.53;100.00
36092;BME280;22147;52.388;13.390;2022-11-02T07:11:18;101297.53;;;6.62;100.00
36092;BME280;22147;52.388;13.390;2022-11-02T07:13:49;101297.25;;;6.63;100.00
36092;BME280;22147;52.388;13.390;2022-11-02T07:16:19;101292.50;;;6.69;100.00
36092;BME280;22147;52.388;13.390;2022-11-02T07:18:48;101293.47;;;6.83;100.00
36092;BME280;22147;52.388;13.390;2022-11-02T07:21:18;101295.34;;;6.93;100.00
36092;BME280;22147;52.388;13.390;2022-11-02T07:24:08;101296.69;;;6.96;100.00
36092;BME280;22147;52.388;13.390;2022-11-02T07:26:38;101304.88;;;7.06;100.00
36092;BME280;22147;52.388;13.390;2022-11-02T07:29:09;101299.81;;;7.18;100.00
36092;BME280;22147;52.388;13.390;2022-11-02T07:31:39;101300.34;;;7.20;100.00
36092;BME280;22147;52.388;13.390;2022-11-02T07:34:09;101306.06;;;7.29;100.00
36092;BME280;22147;52.388;13.390;2022-11-02T07:36:45;101303.41;;;7.43;100.00
36092;BME280;22147;52.388;13.390;2022-11-02T07:39:15;101300.19;;;7.60;100.00
36092;BME280;22147;52.388;13.390;2022-11-02T07:41:47;101303.44;;;7.67;100.00
36092;BME280;22147;52.388;13.390;2022-11-02T07:44:20;101304.16;;;7.72;100.00
36092;BME280;22147;52.388;13.390;2022-11-02T07:46:50;101313.47;;;7.82;100.00
36092;BME280;22147;52.388;13.390;2022-11-02T07:49:20;101312.31;;;7.88;100.00
36092;BME280;22147;52.388;13.390;2022-11-02T07:51:51;101308.56;;;7.98;100.00
36092;BME280;22147;52.388;13.390;2022-11-02T07:54:21;101309.19;;;8.13;100.00
36092;BME280;22147;52.388;13.390;2022-11-02T07:56:51;101313.69;;;8.28;100.00
36092;BME280;22147;52.388;13.390;2022-11-02T07:59:21;101317.97;;;8.40;100.00
36092;BME280;22147;52.388;13.390;2022-11-02T08:01:51;101316.78;;;8.46;100.00
36092;BME280;22147;52.388;13.390;2022-11-02T08:04:21;101313.50;;;8.63;100.00
36092;BME280;22147;52.388;13.390;2022-11-02T08:06:51;101315.66;;;8.85;100.00
36092;BME280;22147;52.388;13.390;2022-11-02T08:09:24;101317.94;;;8.96;100.00
36092;BME280;22147;52.388;13.390;2022-11-02T08:11:56;101313.22;;;8.97;100.00
36092;BME280;22147;52.388;13.390;2022-11-02T08:14:29;101311.06;;;8.94;100.00
36092;BME280;22147;52.388;13.390;2022-11-02T08:16:59;101309.34;;;8.98;100.00
36092;BME280;22147;52.388;13.390;2022-11-02T08:19:28;101322.28;;;9.03;100.00
36092;BME280;22147;52.388;13.390;2022-11-02T08:21:59;101329.97;;;9.06;100.00
36092;BME280;22147;52.388;13.390;2022-11-02T08:24:29;101325.22;;;9.25;100.00
36092;BME280;22147;52.388;13.390;2022-11-02T08:26:59;101325.75;;;9.41;100.00
36092;BME280;22147;52.388;13.390;2022-11-02T08:29:30;101332.03;;;9.47;100.00
36092;BME280;22147;52.388;13.390;2022-11-02T08:32:00;101336.75;;;9.60;100.00
36092;BME280;22147;52.388;13.390;2022-11-02T08:34:30;101336.78;;;9.74;100.00
36092;BME280;22147;52.388;13.390;2022-11-02T08:37:00;101323.53;;;9.85;100.00
36092;BME280;22147;52.388;13.390;2022-11-02T08:39:30;101335.41;;;9.71;100.00
36092;BME280;22147;52.388;13.390;2022-11-02T08:42:00;101330.72;;;9.72;100.00
36092;BME280;22147;52.388;13.390;2022-11-02T08:44:30;101325.69;;;9.74;100.00
36092;BME280;22147;52.388;13.390;2022-11-02T08:47:00;101328.97;;;9.76;100.00
36092;BME280;22147;52.388;13.390;2022-11-02T08:49:35;101334.41;;;9.67;100.00
36092;BME280;22147;52.388;13.390;2022-11-02T08:52:05;101334.41;;;9.67;100.00
36092;BME280;22147;52.388;13.390;2022-11-02T08:54:35;101336.03;;;9.68;100.00
36092;BME280;22147;52.388;13.390;2022-11-02T08:57:05;101328.97;;;9.76;100.00
36092;BME280;22147;52.388;13.390;2022-11-02T08:59:35;101332.78;;;9.80;100.00
36092;BME280;22147;52.388;13.390;2022-11-02T09:02:05;101327.19;;;9.94;100.00
36092;BME280;22147;52.388;13.390;2022-11-02T09:04:35;101321.63;;;10.22;100.00
36092;BME280;22147;52.388;13.390;2022-11-02T09:07:05;101324.59;;;10.39;100.00
36092;BME280;22147;52.388;13.390;2022-11-02T09:09:36;101322.44;;;10.50;100.00
36092;BME280;22147;52.388;13.390;2022-11-02T09:12:07;101323.19;;;10.64;100.00
36092;BME280;22147;52.388;13.390;2022-11-02T09:14:40;101325.00;;;10.69;100.00
36092;BME280;22147;52.388;13.390;2022-11-02T09:17:10;101325.28;;;10.58;100.00
36092;BME280;22147;52.388;13.390;2022-11-02T09:19:40;101321.28;;;10.51;100.00
36092;BME280;22147;52.388;13.390;2022-11-02T09:22:10;101328.59;;;10.47;100.00
36092;BME280;22147;52.388;13.390;2022-11-02T09:24:40;101335.16;;;10.51;100.00
36092;BME280;22147;52.388;13.390;2022-11-02T09:27:10;101331.44;;;10.55;100.00
36092;BME280;22147;52.388;13.390;2022-11-02T09:29:40;101337.78;;;10.70;100.00
36092;BME280;22147;52.388;13.390;2022-11-02T09:32:10;101332.84;;;10.89;100.00
36092;BME280;22147;52.388;13.390;2022-11-02T09:34:40;101328.88;;;11.04;100.00
36092;BME280;22147;52.388;13.390;2022-11-02T09:37:10;101327.34;;;11.20;100.00
36092;BME280;22147;52.388;13.390;2022-11-02T09:39:40;101332.81;;;11.34;100.00
36092;BME280;22147;52.388;13.390;2022-11-02T09:45:15;101339.56;;;11.73;100.00
36092;BME280;22147;52.388;13.390;2022-11-02T09:47:54;101345.41;;;11.94;100.00
36092;BME280;22147;52.388;13.390;2022-11-02T09:51:26;101336.75;;;12.05;100.00
36092;BME280;22147;52.388;13.390;2022-11-02T09:57:24;101351.75;;;12.43;100.00
36092;BME280;22147;52.388;13.390;2022-11-02T10:00:00;101344.56;;;12.51;100.00
36092;BME280;22147;52.388;13.390;2022-11-02T10:05:55;101343.25;;;12.66;100.00
36092;BME280;22147;52.388;13.390;2022-11-02T10:12:01;101349.31;;;12.94;100.00
36092;BME280;22147;52.388;13.390;2022-11-02T10:14:56;101333.06;;;12.88;100.00
36092;BME280;22147;52.388;13.390;2022-11-02T10:17:33;101339.94;;;13.08;100.00
36092;BME280;22147;52.388;13.390;2022-11-02T10:20:26;101357.50;;;13.17;100.00
36092;BME280;22147;52.388;13.390;2022-11-02T10:23:08;101347.31;;;13.38;100.00
36092;BME280;22147;52.388;13.390;2022-11-02T10:25:47;101345.00;;;13.40;100.00
36092;BME280;22147;52.388;13.390;2022-11-02T10:28:26;101349.09;;;13.43;100.00
36092;BME280;22147;52.388;13.390;2022-11-02T10:31:00;101349.44;;;13.33;100.00
36092;BME280;22147;52.388;13.390;2022-11-02T10:33:30;101348.59;;;13.41;100.00
36092;BME280;22147;52.388;13.390;2022-11-02T10:36:25;101365.16;;;13.37;100.00
36092;BME280;22147;52.388;13.390;2022-11-02T10:49:00;101356.81;;;13.37;100.00
36092;BME280;22147;52.388;13.390;2022-11-02T10:51:39;101347.47;;;13.42;100.00
36092;BME280;22147;52.388;13.390;2022-11-02T10:54:13;101353.81;;;13.51;100.00
36092;BME280;22147;52.388;13.390;2022-11-02T10:56:55;101355.13;;;13.54;100.00
36092;BME280;22147;52.388;13.390;2022-11-02T10:59:27;101350.72;;;13.35;100.00
36092;BME280;22147;52.388;13.390;2022-11-02T11:04:33;101352.56;;;13.40;100.00
36092;BME280;22147;52.388;13.390;2022-11-02T11:07:25;101352.38;;;13.28;100.00
36092;BME280;22147;52.388;13.390;2022-11-02T11:09:56;101369.13;;;13.36;100.00
36092;BME280;22147;52.388;13.390;2022-11-02T11:12:37;101376.69;;;13.27;100.00
36092;BME280;22147;52.388;13.390;2022-11-02T11:15:25;101378.47;;;13.23;100.00
36092;BME280;22147;52.388;13.390;2022-11-02T11:18:19;101365.81;;;13.43;100.00
36092;BME280;22147;52.388;13.390;2022-11-02T11:21:12;101368.69;;;13.73;100.00
36092;BME280;22147;52.388;13.390;2022-11-02T11:23:42;101376.34;;;13.93;100.00
36092;BME280;22147;52.388;13.390;2022-11-02T11:26:29;101383.50;;;13.56;95.40
36092;BME280;22147;52.388;13.390;2022-11-02T11:29:00;101378.97;;;13.42;99.31
36092;BME280;22147;52.388;13.390;2022-11-02T11:31:32;101380.44;;;13.31;100.00
36092;BME280;22147;52.388;13.390;2022-11-02T11:34:27;101379.78;;;13.26;100.00
36092;BME280;22147;52.388;13.390;2022-11-02T11:37:13;101381.59;;;13.21;100.00
36092;BME280;22147;52.388;13.390;2022-11-02T11:39:53;101381.41;;;13.35;100.00
36092;BME280;22147;52.388;13.390;2022-11-02T11:42:41;101383.72;;;13.33;99.87
36092;BME280;22147;52.388;13.390;2022-11-02T11:45:28;101372.91;;;13.32;100.00
36092;BME280;22147;52.388;13.390;2022-11-02T11:49:11;101375.03;;;13.35;98.45
36092;BME280;22147;52.388;13.390;2022-11-02T11:51:34;101371.44;;;13.34;99.74
36092;BME280;22147;52.388;13.390;2022-11-02T11:54:30;101371.72;;;13.41;100.00
36092;BME280;22147;52.388;13.390;2022-11-02T11:57:24;101363.53;;;13.45;99.75
36092;BME280;22147;52.388;13.390;2022-11-02T12:00:00;101371.41;;;13.43;100.00
36092;BME280;22147;52.388;13.390;2022-11-02T12:02:35;101374.84;;;13.49;100.00
36092;BME280;22147;52.388;13.390;2022-11-02T12:05:16;101361.22;;;13.47;97.14
36092;BME280;22147;52.388;13.390;2022-11-02T12:17:16;101376.34;;;13.11;96.49
36092;BME280;22147;52.388;13.390;2022-11-02T12:42:03;101372.56;;;13.07;91.06
36092;BME280;22147;52.388;13.390;2022-11-02T12:45:26;101371.78;;;13.07;94.39
36092;BME280;22147;52.388;13.390;2022-11-02T12:48:06;101375.06;;;13.00;96.32
36092;BME280;22147;52.388;13.390;2022-11-02T12:53:52;101383.22;;;13.14;91.94
36092;BME280;22147;52.388;13.390;2022-11-02T12:59:31;101379.94;;;13.29;86.99
36092;BME280;22147;52.388;13.390;2022-11-02T13:02:17;101374.84;;;13.22;84.59
36092;BME280;22147;52.388;13.390;2022-11-02T13:05:15;101378.97;;;13.42;85.37
36092;BME280;22147;52.388;13.390;2022-11-02T13:10:53;101371.06;;;13.92;74.43
36092;BME280;22147;52.388;13.390;2022-11-02T13:14:01;101376.19;;;13.90;72.67
36092;BME280;22147;52.388;13.390;2022-11-02T13:16:46;101374.56;;;13.89;73.27
36092;BME280;22147;52.388;13.390;2022-11-02T13:19:42;101378.31;;;13.93;74.97
36092;BME280;22147;52.388;13.390;2022-11-02T13:22:22;101377.97;;;13.94;71.80
36092;BME280;22147;52.388;13.390;2022-11-02T13:25:43;101371.84;;;14.01;69.14
36092;BME280;22147;52.388;13.390;2022-11-02T13:28:51;101380.25;;;13.92;70.37
36092;BME280;22147;52.388;13.390;2022-11-02T13:31:44;101378.47;;;13.88;74.23
36092;BME280;22147;52.388;13.390;2022-11-02T13:34:35;101372.28;;;13.73;74.18
36092;BME280;22147;52.388;13.390;2022-11-02T13:37:40;101384.78;;;13.76;73.03
36092;BME280;22147;52.388;13.390;2022-11-02T13:40:31;101394.47;;;13.78;75.32
36092;BME280;22147;52.388;13.390;2022-11-02T13:48:07;101381.03;;;13.63;72.59
36092;BME280;22147;52.388;13.390;2022-11-02T13:50:52;101385.66;;;13.59;71.32
36092;BME280;22147;52.388;13.390;2022-11-02T13:53:35;101369.25;;;13.57;74.45
36092;BME280;22147;52.388;13.390;2022-11-02T13:56:21;101377.16;;;13.47;75.63
36092;BME280;22147;52.388;13.390;2022-11-02T13:59:01;101378.00;;;13.30;75.60
36092;BME280;22147;52.388;13.390;2022-11-02T14:01:40;101375.03;;;13.17;78.81
36092;BME280;22147;52.388;13.390;2022-11-02T14:04:14;101371.94;;;13.10;79.09
36092;BME280;22147;52.388;13.390;2022-11-02T14:07:02;101377.00;;;12.99;78.46
36092;BME280;22147;52.388;13.390;2022-11-02T14:10:07;101381.13;;;13.02;76.67
36092;BME280;22147;52.388;13.390;2022-11-02T14:12:47;101379.66;;;12.96;75.87
36092;BME280;22147;52.388;13.390;2022-11-02T14:20:43;101378.31;;;13.11;72.24
36092;BME280;22147;52.388;13.390;2022-11-02T14:23:35;101390.13;;;13.08;73.83
36092;BME280;22147;52.388;13.390;2022-11-02T14:26:31;101389.13;;;13.03;73.17
36092;BME280;22147;52.388;13.390;2022-11-02T14:47:15;101416.66;;;12.53;76.58
36092;BME280;22147;52.388;13.390;2022-11-02T14:50:04;101431.22;;;12.41;77.75
36092;BME280;22147;52.388;13.390;2022-11-02T14:52:55;101425.84;;;12.53;76.13
36092;BME280;22147;52.388;13.390;2022-11-02T14:55:37;101432.69;;;12.38;78.19
36092;BME280;22147;52.388;13.390;2022-11-02T14:58:17;101442.34;;;12.32;79.16
36092;BME280;22147;52.388;13.390;2022-11-02T15:06:20;101444.06;;;12.11;81.76
36092;BME280;22147;52.388;13.390;2022-11-02T15:09:01;101447.94;;;12.01;81.97
36092;BME280;22147;52.388;13.390;2022-11-02T15:11:56;101447.81;;;11.84;83.47
36092;BME280;22147;52.388;13.390;2022-11-02T15:25:25;101453.78;;;11.68;81.11
36092;BME280;22147;52.388;13.390;2022-11-02T15:28:22;101463.72;;;11.60;82.07
36092;BME280;22147;52.388;13.390;2022-11-02T15:31:14;101466.06;;;11.45;83.89
36092;BME280;22147;52.388;13.390;2022-11-02T15:33:58;101458.84;;;11.44;82.14
36092;BME280;22147;52.388;13.390;2022-11-02T15:36:37;101466.69;;;11.41;82.02
36092;BME280;22147;52.388;13.390;2022-11-02T15:39:10;101474.78;;;11.29;83.19
36092;BME280;22147;52.388;13.390;2022-11-02T15:41:44;101479.75;;;11.18;83.02
36092;BME280;22147;52.388;13.390;2022-11-02T15:48:42;101491.91;;;10.86;84.31
36092;BME280;22147;52.388;13.390;2022-11-02T15:59:19;101491.84;;;10.50;87.86
36092;BME280;22147;52.388;13.390;2022-11-02T16:02:24;101486.91;;;10.33;87.53